createdAt,value
2018-07-23T00:01:33.074Z,98401.70
2018-07-23T00:04:01.385Z,98404.75
2018-07-23T00:06:29.908Z,98405.23
2018-07-23T00:08:58.305Z,98407.22
2018-07-23T00:11:26.588Z,98411.84
2018-07-23T00:13:54.883Z,98403.33
2018-07-23T00:16:23.153Z,98409.33
2018-07-23T00:18:51.405Z,98406.69
2018-07-23T00:21:19.885Z,98405.15
2018-07-23T00:23:48.139Z,98407.82
2018-07-23T00:26:16.342Z,98403.23
2018-07-23T00:28:44.745Z,98401.61
2018-07-23T00:31:12.999Z,98408.02
2018-07-23T00:33:41.269Z,98410.13
2018-07-23T00:36:09.506Z,98410.69
2018-07-23T00:38:37.801Z,98407.94
2018-07-23T00:41:06.030Z,98404.97
2018-07-23T00:43:34.393Z,98399.70
2018-07-23T00:46:02.603Z,98402.67
2018-07-23T00:48:30.864Z,98399.87
2018-07-23T00:50:59.107Z,98406.12
2018-07-23T00:53:27.384Z,98396.06
2018-07-23T00:55:55.623Z,98399.51
2018-07-23T00:58:23.872Z,98396.91
2018-07-23T01:00:52.176Z,98394.06
2018-07-23T01:03:20.483Z,98393.47
2018-07-23T01:05:48.737Z,98393.75
2018-07-23T01:08:17.195Z,98390.91
2018-07-23T01:10:45.548Z,98395.58
2018-07-23T01:13:13.792Z,98399.30
2018-07-23T01:15:41.978Z,98400.47
2018-07-23T01:18:10.249Z,98400.27
2018-07-23T01:20:38.498Z,98397.11
2018-07-23T01:23:06.800Z,98395.28
2018-07-23T01:25:35.072Z,98400.75
2018-07-23T01:28:03.515Z,98402.78
2018-07-23T01:30:31.816Z,98403.54
2018-07-23T01:33:00.053Z,98406.96
2018-07-23T01:35:28.329Z,98406.02
2018-07-23T01:37:56.730Z,98405.44
2018-07-23T01:40:24.972Z,98404.78
2018-07-23T01:42:53.214Z,98408.97
2018-07-23T01:45:21.460Z,98407.83
2018-07-23T01:47:49.690Z,98406.30
2018-07-23T01:50:17.945Z,98407.27
2018-07-23T01:52:46.182Z,98406.30
2018-07-23T01:55:14.449Z,98405.06
2018-07-23T01:57:42.708Z,98406.11
2018-07-23T02:00:10.934Z,98412.70
2018-07-23T02:02:39.311Z,98411.47
2018-07-23T02:05:07.641Z,98407.05
2018-07-23T02:07:35.877Z,98411.95
2018-07-23T02:10:04.234Z,98411.84
2018-07-23T02:12:32.564Z,98414.34
2018-07-23T02:15:00.839Z,98406.18
2018-07-23T02:17:29.083Z,98407.59
2018-07-23T02:19:57.273Z,98399.97
2018-07-23T02:22:25.648Z,98402.53
2018-07-23T02:24:53.861Z,98409.09
2018-07-23T02:27:22.178Z,98415.73
2018-07-23T02:29:50.533Z,98409.22
2018-07-23T02:32:18.790Z,98416.22
2018-07-23T02:34:47.027Z,98408.42
2018-07-23T02:37:15.291Z,98415.58
2018-07-23T02:39:43.521Z,98418.06
2018-07-23T02:42:11.766Z,98420.55
2018-07-23T02:44:40.342Z,98416.80
2018-07-23T02:47:09.272Z,98423.31
2018-07-23T02:49:37.760Z,98421.19
2018-07-23T02:52:05.993Z,98424.56
2018-07-23T02:54:34.319Z,98425.14
2018-07-23T02:57:02.864Z,98425.90
2018-07-23T02:59:31.227Z,98421.98
2018-07-23T03:01:59.415Z,98424.66
2018-07-23T03:04:27.712Z,98424.86
2018-07-23T03:06:56.061Z,98426.47
2018-07-23T03:09:24.342Z,98428.30
2018-07-23T03:11:52.618Z,98430.30
2018-07-23T03:14:20.888Z,98426.09
2018-07-23T03:16:49.422Z,98433.27
2018-07-23T03:19:17.693Z,98433.75
2018-07-23T03:21:46.037Z,98439.47
2018-07-23T03:24:14.302Z,98443.12
2018-07-23T03:26:42.550Z,98428.94
2018-07-23T03:29:10.972Z,98436.20
2018-07-23T03:31:39.180Z,98441.27
2018-07-23T03:34:07.433Z,98435.75
2018-07-23T03:36:35.664Z,98440.59
2018-07-23T03:39:04.696Z,98444.83
2018-07-23T03:41:33.084Z,98442.25
2018-07-23T03:44:01.332Z,98448.95
2018-07-23T03:46:29.607Z,98443.95
2018-07-23T03:48:57.983Z,98450.00
2018-07-23T03:51:26.311Z,98452.38
2018-07-23T03:53:54.888Z,98452.95
2018-07-23T03:56:23.137Z,98449.52
2018-07-23T03:58:51.559Z,98453.55
2018-07-23T04:01:19.825Z,98457.55
2018-07-23T04:03:48.189Z,98457.38
2018-07-23T04:06:16.489Z,98461.95
2018-07-23T04:08:44.772Z,98469.33
2018-07-23T04:11:13.122Z,98470.37
2018-07-23T04:13:41.489Z,98473.05
2018-07-23T04:16:09.802Z,98478.61
2018-07-23T04:18:38.145Z,98476.90
2018-07-23T04:21:06.482Z,98479.09
2018-07-23T04:23:34.723Z,98482.80
2018-07-23T04:26:03.137Z,98487.78
2018-07-23T04:28:31.353Z,98481.66
2018-07-23T04:30:59.610Z,98489.45
2018-07-23T04:33:28.026Z,98492.87
2018-07-23T04:35:56.347Z,98490.63
2018-07-23T04:38:24.541Z,98493.08
2018-07-23T04:40:53.019Z,98494.92
2018-07-23T04:43:21.468Z,98494.52
2018-07-23T04:45:49.675Z,98500.62
2018-07-23T04:48:18.104Z,98496.34
2018-07-23T04:50:46.329Z,98493.30
2018-07-23T04:53:14.758Z,98494.11
2018-07-23T04:55:42.983Z,98496.57
2018-07-23T04:58:11.180Z,98498.37
2018-07-23T05:00:39.440Z,98500.08
2018-07-23T05:03:07.651Z,98498.27
2018-07-23T05:05:36.046Z,98495.80
2018-07-23T05:08:06.055Z,98502.97
2018-07-23T05:10:34.328Z,98498.02
2018-07-23T05:13:02.569Z,98505.51
2018-07-23T05:15:30.876Z,98512.78
2018-07-23T05:17:59.101Z,98509.78
2018-07-23T05:20:27.425Z,98514.85
2018-07-23T05:22:55.920Z,98513.64
2018-07-23T05:25:24.113Z,98514.49
2018-07-23T05:27:52.788Z,98521.34
2018-07-23T05:30:21.027Z,98521.84
2018-07-23T05:32:49.240Z,98519.16
2018-07-23T05:35:17.659Z,98519.14
2018-07-23T05:37:46.032Z,98525.15
2018-07-23T05:40:14.275Z,98526.59
2018-07-23T05:42:42.490Z,98526.00
2018-07-23T05:45:10.760Z,98523.16
2018-07-23T05:47:39.099Z,98529.80
2018-07-23T05:50:08.121Z,98530.53
2018-07-23T05:52:36.327Z,98533.59
2018-07-23T05:55:04.649Z,98532.14
2018-07-23T05:57:32.926Z,98528.70
2018-07-23T06:00:02.099Z,98531.63
2018-07-23T06:02:30.274Z,98537.19
2018-07-23T06:04:59.612Z,98532.61
2018-07-23T06:07:27.819Z,98535.56
2018-07-23T06:09:56.186Z,98532.65
2018-07-23T06:12:24.376Z,98538.91
2018-07-23T06:14:52.646Z,98536.78
2018-07-23T06:17:20.859Z,98541.17
2018-07-23T06:19:49.059Z,98547.20
2018-07-23T06:22:17.342Z,98543.30
2018-07-23T06:24:45.615Z,98545.11
2018-07-23T06:27:13.835Z,98545.87
2018-07-23T06:29:42.148Z,98544.05
2018-07-23T06:32:11.019Z,98545.77
2018-07-23T06:34:39.255Z,98549.30
2018-07-23T06:37:07.519Z,98546.85
2018-07-23T06:39:35.828Z,98548.44
2018-07-23T06:42:04.194Z,98550.67
2018-07-23T06:44:32.478Z,98548.34
2018-07-23T06:47:00.715Z,98552.37
2018-07-23T06:49:28.903Z,98550.67
2018-07-23T06:51:57.258Z,98553.59
2018-07-23T06:54:25.511Z,98555.67
2018-07-23T06:56:53.796Z,98550.78
2018-07-23T06:59:22.122Z,98558.25
2018-07-23T07:01:50.380Z,98556.89
2018-07-23T07:04:18.600Z,98557.90
2018-07-23T07:06:46.835Z,98561.58
2018-07-23T07:09:15.183Z,98557.26
2018-07-23T07:11:43.484Z,98559.19
2018-07-23T07:14:11.811Z,98559.78
2018-07-23T07:16:40.058Z,98563.03
2018-07-23T07:19:08.353Z,98558.11
2018-07-23T07:21:36.656Z,98570.39
2018-07-23T07:24:05.021Z,98565.95
2018-07-23T07:26:33.224Z,98566.59
2018-07-23T07:29:01.440Z,98562.92
2018-07-23T07:31:29.779Z,98568.50
2018-07-23T07:33:58.134Z,98577.20
2018-07-23T07:36:26.459Z,98576.34
2018-07-23T07:38:54.768Z,98574.17
2018-07-23T07:41:22.995Z,98574.81
2018-07-23T07:43:51.247Z,98567.83
2018-07-23T07:46:19.562Z,98569.80
2018-07-23T07:48:47.824Z,98566.82
2018-07-23T07:51:16.099Z,98578.59
2018-07-23T07:53:44.305Z,98571.34
2018-07-23T07:56:12.573Z,98567.52
2018-07-23T07:58:40.784Z,98572.20
2018-07-23T08:01:09.008Z,98578.42
2018-07-23T08:03:37.243Z,98568.04
2018-07-23T08:06:05.593Z,98569.88
2018-07-23T08:08:33.810Z,98561.43
2018-07-23T08:11:02.090Z,98569.73
2018-07-23T08:13:30.482Z,98564.84
2018-07-23T08:15:58.754Z,98569.22
2018-07-23T08:18:26.901Z,98570.72
2018-07-23T08:20:55.397Z,98578.64
2018-07-23T08:23:23.627Z,98579.31
2018-07-23T08:25:51.856Z,98585.03
2018-07-23T08:28:20.129Z,98582.02
2018-07-23T08:30:48.416Z,98583.16
2018-07-23T08:33:16.608Z,98582.55
2018-07-23T08:35:44.858Z,98583.09
2018-07-23T08:38:13.055Z,98580.97
2018-07-23T08:40:41.301Z,98580.09
2018-07-23T08:43:09.677Z,98587.80
2018-07-23T08:45:37.918Z,98589.16
2018-07-23T08:48:06.180Z,98588.47
2018-07-23T08:50:34.504Z,98589.13
2018-07-23T08:53:02.744Z,98588.72
2018-07-23T08:55:30.972Z,98589.91
2018-07-23T08:57:59.216Z,98587.72
2018-07-23T09:00:27.758Z,98592.41
2018-07-23T09:02:56.054Z,98591.17
2018-07-23T09:05:24.246Z,98591.55
2018-07-23T09:07:52.467Z,98597.03
2018-07-23T09:10:20.739Z,98589.23
2018-07-23T09:12:48.941Z,98590.45
2018-07-23T09:15:17.477Z,98589.13
2018-07-23T09:17:45.733Z,98582.61
2018-07-23T09:20:14.034Z,98585.03
2018-07-23T09:22:42.359Z,98590.86
2018-07-23T09:25:10.724Z,98582.73
2018-07-23T09:27:38.999Z,98580.97
2018-07-23T09:30:11.676Z,98586.30
2018-07-23T09:32:40.011Z,98592.39
2018-07-23T09:35:08.295Z,98588.89
2018-07-23T09:37:36.534Z,98584.48
2018-07-23T09:40:04.845Z,98587.53
2018-07-23T09:42:33.284Z,98591.76
2018-07-23T09:45:01.599Z,98588.47
2018-07-23T09:47:30.003Z,98588.89
2018-07-23T09:49:58.236Z,98585.88
2018-07-23T09:52:26.527Z,98580.70
2018-07-23T09:54:54.769Z,98582.28
2018-07-23T09:57:23.039Z,98580.94
2018-07-23T09:59:51.421Z,98581.91
2018-07-23T10:02:19.653Z,98579.05
2018-07-23T10:04:47.969Z,98582.61
2018-07-23T10:07:16.423Z,98582.42
2018-07-23T10:09:44.654Z,98582.03
2018-07-23T10:12:12.844Z,98571.02
2018-07-23T10:14:41.605Z,98570.34
2018-07-23T10:17:10.182Z,98575.33
2018-07-23T10:19:38.444Z,98576.73
2018-07-23T10:22:06.729Z,98579.34
2018-07-23T10:24:34.912Z,98568.50
2018-07-23T10:27:03.134Z,98574.94
2018-07-23T10:29:31.373Z,98565.63
2018-07-23T10:31:59.668Z,98564.70
2018-07-23T10:34:27.907Z,98569.99
2018-07-23T10:36:56.206Z,98565.03
2018-07-23T10:39:24.395Z,98564.33
2018-07-23T10:41:52.594Z,98562.13
2018-07-23T10:44:20.824Z,98559.13
2018-07-23T10:46:49.116Z,98559.39
2018-07-23T10:49:17.435Z,98562.20
2018-07-23T10:51:45.700Z,98563.45
2018-07-23T10:54:13.913Z,98557.02
2018-07-23T10:56:42.232Z,98556.31
2018-07-23T10:59:10.463Z,98555.58
2018-07-23T11:01:38.720Z,98552.81
2018-07-23T11:04:07.074Z,98554.34
2018-07-23T11:06:35.348Z,98557.37
2018-07-23T11:09:03.715Z,98556.66
2018-07-23T11:11:32.057Z,98554.41
2018-07-23T11:14:00.332Z,98553.91
2018-07-23T11:16:28.605Z,98551.13
2018-07-23T11:18:57.043Z,98548.56
2018-07-23T11:21:25.286Z,98555.30
2018-07-23T11:23:53.543Z,98547.67
2018-07-23T11:26:21.966Z,98546.89
2018-07-23T11:28:50.166Z,98553.97
2018-07-23T11:31:18.512Z,98542.64
2018-07-23T11:33:47.001Z,98543.85
2018-07-23T11:36:15.316Z,98545.48
2018-07-23T11:38:43.584Z,98535.13
2018-07-23T11:41:11.826Z,98536.02
2018-07-23T11:43:40.093Z,98537.58
2018-07-23T11:46:08.396Z,98529.75
2018-07-23T11:48:36.584Z,98529.55
2018-07-23T11:51:04.850Z,98529.05
2018-07-23T11:53:33.184Z,98521.08
2018-07-23T11:56:01.332Z,98523.63
2018-07-23T11:58:29.578Z,98526.23
2018-07-23T12:00:57.913Z,98521.95
2018-07-23T12:03:26.264Z,98520.35
2018-07-23T12:05:54.540Z,98515.91
2018-07-23T12:08:22.805Z,98520.27
2018-07-23T12:10:51.020Z,98515.48
2018-07-23T12:13:19.301Z,98516.51
2018-07-23T12:15:47.598Z,98518.20
2018-07-23T12:18:15.862Z,98510.95
2018-07-23T12:20:44.072Z,98505.45
2018-07-23T12:23:12.327Z,98507.09
2018-07-23T12:25:40.524Z,98496.05
2018-07-23T12:28:08.976Z,98502.41
2018-07-23T12:30:37.360Z,98500.32
2018-07-23T12:33:05.868Z,98494.89
2018-07-23T12:35:34.191Z,98499.98
2018-07-23T12:38:02.825Z,98491.53
2018-07-23T12:40:31.183Z,98488.67
2018-07-23T12:42:59.455Z,98488.81
2018-07-23T12:45:27.751Z,98486.94
2018-07-23T12:47:56.025Z,98495.56
2018-07-23T12:50:24.413Z,98495.62
2018-07-23T12:52:52.867Z,98487.89
2018-07-23T12:55:21.239Z,98485.15
2018-07-23T12:57:49.980Z,98479.07
2018-07-23T13:00:18.320Z,98483.94
2018-07-23T13:02:46.612Z,98484.07
2018-07-23T13:05:14.884Z,98477.86
2018-07-23T13:07:43.076Z,98480.44
2018-07-23T13:10:11.533Z,98480.31
2018-07-23T13:12:39.749Z,98477.41
2018-07-23T13:15:07.983Z,98472.75
2018-07-23T13:17:36.318Z,98469.81
2018-07-23T13:20:04.809Z,98463.89
2018-07-23T13:22:33.263Z,98468.34
2018-07-23T13:25:01.831Z,98471.80
2018-07-23T13:27:30.158Z,98464.55
2018-07-23T13:29:58.370Z,98473.23
2018-07-23T13:32:26.687Z,98469.42
2018-07-23T13:34:55.195Z,98472.34
2018-07-23T13:37:23.540Z,98465.64
2018-07-23T13:39:52.592Z,98465.61
2018-07-23T13:42:20.954Z,98459.60
2018-07-23T13:44:49.238Z,98457.78
2018-07-23T13:47:17.530Z,98456.84
2018-07-23T13:49:45.819Z,98458.66
2018-07-23T13:52:14.125Z,98450.71
2018-07-23T13:54:42.377Z,98445.83
2018-07-23T13:57:10.779Z,98443.61
2018-07-23T13:59:39.061Z,98438.19
2018-07-23T14:02:07.428Z,98447.73
2018-07-23T14:04:35.729Z,98443.52
2018-07-23T14:07:03.944Z,98440.19
2018-07-23T14:09:32.238Z,98434.80
2018-07-23T14:12:00.519Z,98426.55
2018-07-23T14:14:28.822Z,98426.61
2018-07-23T14:16:56.992Z,98427.92
2018-07-23T14:19:25.580Z,98422.02
2018-07-23T14:21:53.764Z,98427.12
2018-07-23T14:24:22.016Z,98419.70
2018-07-23T14:26:50.214Z,98413.09
2018-07-23T14:29:18.563Z,98415.16
2018-07-23T14:31:46.790Z,98407.36
2018-07-23T14:34:15.268Z,98407.55
2018-07-23T14:36:43.670Z,98411.10
2018-07-23T14:39:13.435Z,98408.74
2018-07-23T14:41:41.927Z,98413.92
2018-07-23T14:44:10.423Z,98395.85
2018-07-23T14:46:39.460Z,98398.48
2018-07-23T14:49:08.141Z,98403.19
2018-07-23T14:51:37.068Z,98396.17
2018-07-23T14:54:05.800Z,98400.64
2018-07-23T14:56:34.244Z,98387.88
2018-07-23T14:59:02.596Z,98395.20
2018-07-23T15:01:31.344Z,98383.61
2018-07-23T15:03:59.694Z,98383.95
2018-07-23T15:06:28.074Z,98383.57
2018-07-23T15:08:56.396Z,98388.03
2018-07-23T15:11:24.756Z,98381.17
2018-07-23T15:13:53.086Z,98378.50
2018-07-23T15:16:21.658Z,98373.55
2018-07-23T15:18:49.951Z,98375.17
2018-07-23T15:21:18.320Z,98378.36
2018-07-23T15:23:46.586Z,98374.48
2018-07-23T15:26:14.915Z,98380.18
2018-07-23T15:28:43.204Z,98380.39
2018-07-23T15:31:11.524Z,98376.44
2018-07-23T15:33:39.799Z,98375.08
2018-07-23T15:36:08.274Z,98373.88
2018-07-23T15:38:36.743Z,98374.30
2018-07-23T15:41:04.908Z,98373.86
2018-07-23T15:43:33.208Z,98378.77
2018-07-23T15:46:01.779Z,98378.53
2018-07-23T15:48:29.871Z,98377.34
2018-07-23T15:50:58.314Z,98378.40
2018-07-23T15:53:26.650Z,98371.34
2018-07-23T15:55:54.911Z,98367.05
2018-07-23T15:58:23.180Z,98371.67
2018-07-23T16:00:51.525Z,98363.17
2018-07-23T16:03:19.832Z,98366.62
2018-07-23T16:05:48.067Z,98365.92
2018-07-23T16:08:16.313Z,98362.20
2018-07-23T16:10:44.736Z,98357.23
2018-07-23T16:13:13.187Z,98366.50
2018-07-23T16:15:41.461Z,98363.17
2018-07-23T16:18:09.685Z,98360.86
2018-07-23T16:20:37.951Z,98366.37
2018-07-23T16:23:06.161Z,98361.30
2018-07-23T16:25:34.328Z,98364.69
2018-07-23T16:28:02.745Z,98352.09
2018-07-23T16:30:31.010Z,98353.52
2018-07-23T16:32:59.257Z,98355.90
2018-07-23T16:35:27.496Z,98352.88
2018-07-23T16:37:55.755Z,98346.09
2018-07-23T16:40:24.051Z,98337.95
2018-07-23T16:42:52.439Z,98341.17
2018-07-23T16:45:20.697Z,98345.19
2018-07-23T16:47:48.967Z,98344.08
2018-07-23T16:50:17.245Z,98344.61
2018-07-23T16:52:45.503Z,98333.46
2018-07-23T16:55:13.721Z,98341.81
2018-07-23T16:57:41.960Z,98346.02
2018-07-23T17:00:10.235Z,98341.71
2018-07-23T17:02:38.493Z,98351.12
2018-07-23T17:05:06.771Z,98345.48
2018-07-23T17:07:35.123Z,98348.97
2018-07-23T17:10:03.447Z,98358.52
2018-07-23T17:12:31.760Z,98357.98
2018-07-23T17:15:01.155Z,98350.43
2018-07-23T17:17:29.477Z,98355.73
2018-07-23T17:19:57.701Z,98352.70
2018-07-23T17:22:25.962Z,98351.40
2018-07-23T17:24:54.351Z,98350.82
2018-07-23T17:27:22.849Z,98349.06
2018-07-23T17:29:51.098Z,98350.48
2018-07-23T17:32:19.332Z,98356.23
2018-07-23T17:34:47.686Z,98346.98
2018-07-23T17:37:16.010Z,98350.92
2018-07-23T17:39:44.311Z,98350.26
2018-07-23T17:42:12.759Z,98350.85
2018-07-23T17:44:41.063Z,98350.75
2018-07-23T17:47:09.446Z,98352.32
2018-07-23T17:49:37.733Z,98347.99
2018-07-23T17:52:06.089Z,98357.69
2018-07-23T17:54:34.298Z,98360.38
2018-07-23T17:57:02.545Z,98359.77
2018-07-23T17:59:30.922Z,98359.52
2018-07-23T18:01:59.209Z,98361.27
2018-07-23T18:04:27.679Z,98361.64
2018-07-23T18:06:55.913Z,98361.83
2018-07-23T18:09:24.235Z,98364.48
2018-07-23T18:11:52.539Z,98368.47
2018-07-23T18:14:20.816Z,98375.06
2018-07-23T18:16:49.060Z,98377.42
2018-07-23T18:19:17.470Z,98372.94
2018-07-23T18:21:45.751Z,98379.41
2018-07-23T18:24:14.161Z,98380.75
2018-07-23T18:26:42.438Z,98379.01
2018-07-23T18:29:10.651Z,98382.11
2018-07-23T18:31:38.941Z,98383.31
2018-07-23T18:34:07.402Z,98383.11
2018-07-23T18:36:35.773Z,98383.81
2018-07-23T18:39:06.281Z,98386.47
2018-07-23T18:41:34.515Z,98391.33
2018-07-23T18:44:02.739Z,98397.34
2018-07-23T18:46:31.091Z,98393.26
2018-07-23T18:49:21.664Z,98393.59
2018-07-23T18:51:51.718Z,98397.50
2018-07-23T18:54:21.258Z,98394.53
2018-07-23T18:56:52.355Z,98394.81
2018-07-23T18:59:20.670Z,98397.22
2018-07-23T19:01:49.880Z,98402.58
2018-07-23T19:04:18.414Z,98404.73
2018-07-23T19:06:46.901Z,98406.81
2018-07-23T19:09:16.634Z,98408.80
2018-07-23T19:11:45.934Z,98412.22
2018-07-23T19:14:14.845Z,98420.23
2018-07-23T19:16:43.416Z,98422.05
2018-07-23T19:19:11.806Z,98424.98
2018-07-23T19:21:40.080Z,98430.47
2018-07-23T19:24:08.334Z,98428.07
2018-07-23T19:26:36.759Z,98427.37
2018-07-23T19:29:05.258Z,98430.45
2018-07-23T19:31:33.552Z,98433.06
2018-07-23T19:34:02.753Z,98434.28
2018-07-23T19:36:31.206Z,98435.31
2018-07-23T19:38:59.759Z,98434.47
2018-07-23T19:41:28.605Z,98435.75
2018-07-23T19:43:56.926Z,98436.63
2018-07-23T19:46:25.170Z,98440.80
2018-07-23T19:48:53.667Z,98446.03
2018-07-23T19:51:21.873Z,98446.53
2018-07-23T19:53:50.141Z,98446.55
2018-07-23T19:56:18.423Z,98445.00
2018-07-23T19:58:46.747Z,98446.75
2018-07-23T20:01:14.977Z,98452.11
2018-07-23T20:03:43.399Z,98459.09
2018-07-23T20:06:11.950Z,98462.58
2018-07-23T20:08:40.249Z,98462.11
2018-07-23T20:11:08.809Z,98458.80
2018-07-23T20:13:37.021Z,98454.52
2018-07-23T20:16:05.385Z,98456.01
2018-07-23T20:18:33.726Z,98450.64
2018-07-23T20:21:03.147Z,98458.48
2018-07-23T20:23:31.417Z,98461.27
2018-07-23T20:25:59.791Z,98451.94
2018-07-23T20:28:28.014Z,98455.98
2018-07-23T20:30:56.272Z,98451.91
2018-07-23T20:33:25.391Z,98448.35
2018-07-23T20:35:53.651Z,98454.48
2018-07-23T20:38:21.967Z,98454.08
2018-07-23T20:40:50.251Z,98447.94
2018-07-23T20:43:18.704Z,98447.49
2018-07-23T20:45:46.969Z,98442.59
2018-07-23T20:48:15.165Z,98446.87
2018-07-23T20:50:43.518Z,98448.91
2018-07-23T20:53:11.809Z,98446.80
2018-07-23T20:55:40.026Z,98446.27
2018-07-23T20:58:08.401Z,98447.23
2018-07-23T21:00:36.963Z,98446.80
2018-07-23T21:03:06.067Z,98449.96
2018-07-23T21:05:34.564Z,98441.97
2018-07-23T21:08:03.011Z,98443.31
2018-07-23T21:10:31.328Z,98440.30
2018-07-23T21:12:59.724Z,98446.11
2018-07-23T21:15:28.198Z,98445.81
2018-07-23T21:17:56.683Z,98448.73
2018-07-23T21:20:25.146Z,98451.48
2018-07-23T21:22:53.472Z,98442.41
2018-07-23T21:25:21.903Z,98444.30
2018-07-23T21:27:50.254Z,98446.27
2018-07-23T21:30:19.583Z,98443.77
2018-07-23T21:32:48.007Z,98446.28
2018-07-23T21:35:16.440Z,98446.38
2018-07-23T21:37:44.788Z,98447.59
2018-07-23T21:40:13.246Z,98446.28
2018-07-23T21:42:41.716Z,98450.00
2018-07-23T21:45:10.671Z,98449.93
2018-07-23T21:47:39.152Z,98451.73
2018-07-23T21:50:08.506Z,98452.56
2018-07-23T21:52:37.040Z,98450.47
2018-07-23T21:55:06.016Z,98447.69
2018-07-23T21:57:34.426Z,98444.66
2018-07-23T22:00:02.748Z,98448.90
2018-07-23T22:02:31.101Z,98443.66
2018-07-23T22:04:59.482Z,98451.28
2018-07-23T22:07:27.991Z,98447.01
2018-07-23T22:09:56.439Z,98452.34
2018-07-23T22:12:24.854Z,98449.20
2018-07-23T22:14:53.173Z,98449.91
2018-07-23T22:17:21.735Z,98446.00
2018-07-23T22:19:50.100Z,98439.45
2018-07-23T22:22:18.487Z,98449.11
2018-07-23T22:24:46.982Z,98451.03
2018-07-23T22:27:15.244Z,98443.45
2018-07-23T22:29:43.455Z,98447.41
2018-07-23T22:32:11.734Z,98446.47
2018-07-23T22:34:39.963Z,98441.74
2018-07-23T22:37:08.213Z,98445.49
2018-07-23T22:39:36.613Z,98446.83
2018-07-23T22:42:05.129Z,98445.86
2018-07-23T22:44:33.327Z,98439.23
2018-07-23T22:47:01.556Z,98447.71
2018-07-23T22:49:29.962Z,98448.35
2018-07-23T22:51:58.296Z,98443.75
2018-07-23T22:54:26.531Z,98436.62
2018-07-23T22:56:54.817Z,98440.42
2018-07-23T22:59:23.232Z,98441.07
2018-07-23T23:01:51.479Z,98441.41
2018-07-23T23:04:19.757Z,98443.21
2018-07-23T23:06:48.065Z,98440.95
2018-07-23T23:09:16.523Z,98433.36
2018-07-23T23:11:44.830Z,98439.13
2018-07-23T23:14:13.150Z,98439.05
2018-07-23T23:16:41.581Z,98442.78
2018-07-23T23:19:09.879Z,98445.28
2018-07-23T23:21:38.339Z,98441.17
2018-07-23T23:24:06.572Z,98436.11
2018-07-23T23:26:34.919Z,98429.90
2018-07-23T23:29:03.181Z,98435.54
2018-07-23T23:31:31.617Z,98434.60
2018-07-23T23:33:59.919Z,98426.73
2018-07-23T23:36:28.153Z,98427.80
2018-07-23T23:38:56.645Z,98428.19
2018-07-23T23:41:24.871Z,98423.69
2018-07-23T23:43:53.163Z,98425.23
2018-07-23T23:46:21.440Z,98428.77
2018-07-23T23:48:49.702Z,98431.53
2018-07-23T23:53:47.165Z,98428.08
2018-07-23T23:56:15.440Z,98432.67
2018-07-23T23:58:43.693Z,98430.39
